Time;durP1;ratioP1;P1;durP2;ratioP2;P2;SDS_P1;SDS_P2;PMS_P1;PMS_P2;Temp;Humidity;BMP_temperature;BMP_pressure;BME280_temperature;BME280_humidity;BME280_pressure;Samples;Min_cycle;Max_cycle;Signal;HPM_P1;HPM_P2
2022/06/21 00:01:25;;;;;;;5.37;2.03;;;16.60;65.70;;;19.35;50.20;101536.84;5102619;28;20527;-63
2022/06/21 00:03:55;;;;;;;9.73;2.57;;;16.60;65.80;;;19.34;50.41;101535.19;5095094;28;20549;-63
2022/06/21 00:06:27;;;;;;;7.63;2.50;;;16.60;65.70;;;19.31;50.13;101532.91;5095046;28;20214;-63
2022/06/21 00:08:54;;;;;;;4.57;2.40;;;16.60;65.70;;;19.29;50.21;101526.97;5094809;28;20650;-62
2022/06/21 00:11:26;;;;;;;2.53;1.63;;;16.50;65.70;;;19.27;50.39;101529.06;5094456;28;20708;-63
2022/06/21 00:13:55;;;;;;;8.00;2.67;;;16.50;65.80;;;19.26;50.40;101544.25;5094569;28;20695;-63
2022/06/21 00:16:26;;;;;;;7.23;2.30;;;16.50;65.90;;;19.24;50.32;101534.81;5074352;28;20667;-63
2022/06/21 00:18:56;;;;;;;8.30;2.47;;;16.50;66.00;;;19.22;50.31;101534.19;5073340;28;20225;-63
2022/06/21 00:21:27;;;;;;;4.03;1.87;;;16.50;65.90;;;19.17;50.34;101536.69;5073794;28;20735;-62
2022/06/21 00:23:56;;;;;;;7.80;2.10;;;16.40;65.80;;;19.16;50.81;101527.06;5074447;28;20185;-63
2022/06/21 00:26:28;;;;;;;6.33;2.17;;;16.40;66.20;;;19.18;51.06;101530.31;5074298;28;20196;-63
2022/06/21 00:28:56;;;;;;;7.03;2.53;;;16.40;66.40;;;19.19;51.07;101529.28;5087078;28;20588;-63
2022/06/21 00:31:29;;;;;;;7.97;2.80;;;16.40;66.20;;;19.19;50.80;101537.28;5094038;28;20219;-63
2022/06/21 00:34:04;;;;;;;8.07;2.47;;;16.40;66.20;;;19.17;50.81;101534.84;5094349;28;20465;-63
2022/06/21 00:37:28;;;;;;;5.07;2.60;;;16.40;66.30;;;19.07;50.77;101537.13;5093999;28;20188;-62
2022/06/21 00:39:56;;;;;;;8.07;2.30;;;16.40;66.30;;;19.07;50.75;101538.97;5094059;28;20192;-61
2022/06/21 00:42:29;;;;;;;6.77;2.47;;;16.40;66.10;;;19.04;50.77;101550.09;5093082;28;20214;-63
2022/06/21 00:45:04;;;;;;;4.03;1.80;;;16.30;66.20;;;19.00;50.91;101548.84;5093706;28;20643;-65
2022/06/21 00:47:40;;;;;;;7.37;2.10;;;16.30;66.40;;;19.00;51.07;101554.19;5094235;28;20188;-64
2022/06/21 00:50:31;;;;;;;5.60;2.57;;;16.30;66.30;;;18.90;51.10;101550.09;5093646;28;20795;-63
2022/06/21 00:53:07;;;;;;;5.63;2.07;;;16.20;66.70;;;18.89;51.04;101547.66;5093870;28;20271;-63
2022/06/21 00:55:44;;;;;;;10.27;2.43;;;16.20;66.70;;;18.82;51.03;101545.00;5109641;28;20646;-63
2022/06/21 00:58:15;;;;;;;9.70;2.17;;;16.20;66.90;;;18.79;51.31;101545.41;5093719;28;20686;-62
2022/06/21 01:00:58;;;;;;;9.40;2.93;;;16.10;67.00;;;18.74;51.51;101550.56;5093542;28;20262;-62
2022/06/21 01:03:31;;;;;;;9.90;2.50;;;16.10;67.30;;;18.72;51.36;101547.28;5093903;28;20192;-62
2022/06/21 01:06:05;;;;;;;5.30;2.10;;;16.00;67.10;;;18.68;51.64;101546.06;5093615;28;20218;-64
2022/06/21 01:08:38;;;;;;;6.63;2.20;;;16.00;67.20;;;18.65;51.58;101543.81;5093366;28;20194;-62
2022/06/21 01:11:12;;;;;;;7.47;2.43;;;15.90;67.30;;;18.62;51.54;101535.38;5093055;28;20539;-63
2022/06/21 01:13:46;;;;;;;8.17;2.40;;;15.90;67.50;;;18.57;51.54;101528.00;5093531;28;20203;-64
2022/06/21 01:16:15;;;;;;;5.03;1.87;;;15.80;67.60;;;18.55;51.83;101532.72;5094020;28;20202;-63
2022/06/21 01:18:44;;;;;;;7.40;2.50;;;15.80;67.90;;;18.56;52.18;101521.06;5093794;28;20204;-64
2022/06/21 01:21:17;;;;;;;6.43;2.90;;;15.80;68.10;;;18.57;51.98;101516.50;5093020;28;20212;-63
2022/06/21 01:24:11;;;;;;;7.53;2.60;;;15.80;68.20;;;18.53;52.22;101517.97;5092990;28;20279;-63
2022/06/21 01:26:47;;;;;;;9.43;2.57;;;15.80;68.20;;;18.58;52.35;101508.31;5093458;28;20196;-63
2022/06/21 01:29:26;;;;;;;5.10;2.20;;;15.90;68.60;;;18.61;52.48;101507.88;5093288;28;20263;-63
2022/06/21 01:31:58;;;;;;;7.90;2.37;;;15.90;68.40;;;18.66;52.58;101504.63;5092611;28;20204;-64
2022/06/21 01:34:28;;;;;;;5.53;2.77;;;15.90;68.50;;;18.72;52.30;101503.78;5093052;28;20275;-64
2022/06/21 01:37:04;;;;;;;10.97;2.93;;;16.00;68.20;;;18.76;51.89;101503.16;5093266;28;20672;-63
2022/06/21 01:39:41;;;;;;;5.43;2.60;;;16.00;67.60;;;18.74;51.74;101505.22;5093062;28;20682;-63
2022/06/21 01:42:17;;;;;;;10.47;2.70;;;16.00;67.40;;;18.73;51.93;101503.56;5092291;28;20218;-64
2022/06/21 01:44:53;;;;;;;8.90;2.83;;;16.00;67.80;;;18.76;51.86;101511.16;5093112;28;20196;-64
2022/06/21 01:47:28;;;;;;;8.00;3.00;;;16.00;67.40;;;18.77;51.82;101503.97;5093261;28;20188;-64
2022/06/21 01:50:02;;;;;;;4.37;2.50;;;16.00;67.10;;;18.78;51.84;101502.94;5097349;28;20188;-61
2022/06/21 01:52:35;;;;;;;5.27;2.70;;;16.10;67.50;;;18.81;51.69;101508.69;5096533;28;20697;-64
2022/06/21 01:55:07;;;;;;;7.13;3.10;;;16.10;67.30;;;18.83;51.54;101513.78;5097149;28;20188;-64
2022/06/21 01:57:38;;;;;;;10.37;3.87;;;16.10;67.30;;;18.83;51.45;101511.94;5097195;28;20188;-64
2022/06/21 02:00:07;;;;;;;13.40;4.30;;;16.10;67.30;;;18.86;51.64;101511.53;5097042;28;20200;-65
2022/06/21 02:02:41;;;;;;;15.07;4.00;;;16.10;67.30;;;18.88;51.55;101504.13;5096378;28;20212;-64
2022/06/21 02:05:16;;;;;;;14.23;6.23;;;16.20;67.20;;;18.86;51.43;101505.38;5095670;28;20192;-63
2022/06/21 02:07:51;;;;;;;14.30;6.07;;;16.10;67.00;;;18.79;51.64;101508.06;5096959;28;20701;-63
2022/06/21 02:10:25;;;;;;;12.97;6.57;;;16.10;67.00;;;18.76;51.56;101511.16;5096778;28;20180;-63
2022/06/21 02:12:59;;;;;;;13.40;7.43;;;16.00;67.10;;;18.75;51.73;101509.53;5096572;28;20208;-62
2022/06/21 02:15:38;;;;;;;12.13;5.23;;;16.00;67.20;;;18.73;51.85;101500.09;5096891;28;20191;-63
2022/06/21 02:18:12;;;;;;;9.83;4.63;;;16.00;67.40;;;18.70;51.68;101501.31;5096747;28;20191;-62
2022/06/21 02:20:47;;;;;;;8.90;4.50;;;16.00;67.40;;;18.68;51.85;101503.38;5096413;28;20184;-64
2022/06/21 02:23:18;;;;;;;10.73;4.40;;;16.00;67.60;;;18.69;51.78;101515.69;5096247;28;20238;-63
2022/06/21 02:25:46;;;;;;;9.47;3.90;;;16.00;67.70;;;18.69;51.69;101510.34;5096804;28;20752;-64
2022/06/21 02:28:18;;;;;;;8.30;3.40;;;15.90;67.50;;;18.68;51.68;101513.22;5096445;28;20195;-63
2022/06/21 02:30:50;;;;;;;9.50;2.87;;;15.90;67.50;;;18.67;51.49;101509.75;5096213;28;20703;-63
2022/06/21 02:33:21;;;;;;;10.07;3.43;;;15.90;67.40;;;18.65;51.63;101498.47;5096299;28;20216;-63
2022/06/21 02:35:53;;;;;;;7.17;3.80;;;15.90;67.50;;;18.61;51.75;101502.56;5096309;28;20185;-63
2022/06/21 02:38:25;;;;;;;6.60;3.00;;;15.80;67.70;;;18.58;51.79;101492.31;5096252;28;20212;-62
2022/06/21 02:41:02;;;;;;;9.03;3.80;;;15.80;68.50;;;18.54;51.95;101493.75;5095849;28;20205;-64
2022/06/21 02:43:37;;;;;;;8.33;3.43;;;15.80;67.60;;;18.51;52.03;101494.19;5096044;28;20192;-63
2022/06/21 02:46:10;;;;;;;7.43;3.50;;;15.80;67.70;;;18.49;52.01;101492.75;5095960;28;20203;-62
2022/06/21 02:48:45;;;;;;;11.60;4.17;;;15.80;67.70;;;18.47;52.53;101492.94;5096024;28;20188;-63
2022/06/21 02:51:19;;;;;;;11.77;4.87;;;15.70;68.30;;;18.49;52.22;101493.56;5094726;28;20232;-62
2022/06/21 02:53:59;;;;;;;9.53;4.83;;;15.80;68.10;;;18.47;52.06;101490.28;5094635;28;20193;-63
2022/06/21 02:56:35;;;;;;;9.27;4.30;;;15.80;68.10;;;18.47;52.45;101502.81;5094635;28;20203;-63
2022/06/21 02:59:04;;;;;;;8.90;4.00;;;15.80;68.20;;;18.49;52.21;101506.91;5094213;28;20216;-64
2022/06/21 03:01:36;;;;;;;13.20;4.20;;;15.80;68.00;;;18.49;52.00;101509.56;5094381;28;20218;-64
2022/06/21 03:04:07;;;;;;;9.80;4.50;;;15.70;68.70;;;18.47;52.17;101516.13;5094547;28;20195;-63
2022/06/21 03:06:35;;;;;;;13.33;4.40;;;15.70;68.00;;;18.43;52.24;101510.34;5094702;28;20631;-64
2022/06/21 03:09:09;;;;;;;11.50;4.23;;;15.70;68.20;;;18.42;52.55;101508.72;5094602;28;20188;-64
2022/06/21 03:11:43;;;;;;;11.40;4.20;;;15.70;68.60;;;18.44;52.60;101489.84;5094082;28;20207;-64
2022/06/21 03:14:16;;;;;;;10.93;4.37;;;15.70;68.40;;;18.45;52.47;101492.28;5094342;28;20199;-63
2022/06/21 03:16:45;;;;;;;7.57;4.03;;;15.70;68.70;;;18.51;52.75;101491.50;5094529;28;20203;-63
2022/06/21 03:19:24;;;;;;;10.00;4.27;;;15.80;68.80;;;18.57;52.53;101490.66;5094468;28;20283;-64
2022/06/21 03:21:53;;;;;;;9.83;4.10;;;15.80;68.40;;;18.67;51.81;101491.06;5093809;28;20700;-63
2022/06/21 03:24:25;;;;;;;11.63;4.40;;;15.90;67.90;;;18.66;51.71;101493.97;5094480;28;20184;-63
2022/06/21 03:26:59;;;;;;;9.67;4.20;;;15.90;67.30;;;18.64;51.88;101488.81;5094287;28;20215;-63
2022/06/21 03:29:31;;;;;;;9.90;4.67;;;15.90;67.80;;;18.67;52.07;101493.72;5094261;28;20222;-63
2022/06/21 03:32:02;;;;;;;11.63;4.50;;;16.00;68.00;;;18.73;51.87;101492.88;5093404;28;20296;-63
2022/06/21 03:34:33;;;;;;;10.63;4.23;;;16.00;67.50;;;18.77;51.82;101494.13;5094162;28;20284;-63
2022/06/21 03:37:01;;;;;;;8.87;4.20;;;16.00;67.30;;;18.80;51.59;101487.56;5094029;28;20189;-63
2022/06/21 03:42:24;;;;;;;13.30;4.53;;;16.10;67.00;;;18.77;51.41;101480.78;5093238;28;20216;-64
2022/06/21 03:45:00;;;;;;;12.93;3.83;;;16.00;66.90;;;18.76;51.38;101475.66;5094232;28;20646;-63
2022/06/21 03:47:35;;;;;;;10.93;4.10;;;16.00;67.00;;;18.76;51.60;101472.97;5094142;28;20192;-64
2022/06/21 03:50:09;;;;;;;7.70;3.73;;;16.00;67.30;;;18.77;51.89;101480.78;5054256;28;1127675;-64
2022/06/21 03:52:44;;;;;;;8.57;4.00;;;16.00;67.30;;;18.78;51.55;101479.75;5094114;28;20303;-62
2022/06/21 03:55:25;;;;;;;11.33;3.90;;;16.00;67.10;;;18.78;51.24;101487.75;5094612;28;20261;-63
2022/06/21 03:58:05;;;;;;;10.27;4.50;;;16.00;67.10;;;18.77;51.26;101496.78;5093636;28;20211;-64
2022/06/21 04:00:46;;;;;;;7.60;3.77;;;16.00;67.00;;;18.72;51.10;101499.25;5093729;28;20212;-65
2022/06/21 04:03:23;;;;;;;11.63;3.20;;;16.00;66.90;;;18.64;51.14;101491.47;5094357;28;20192;-64
2022/06/21 04:05:58;;;;;;;12.13;3.47;;;15.90;66.80;;;18.55;51.29;101498.06;5093873;28;20200;-64
2022/06/21 04:08:39;;;;;;;8.27;3.07;;;15.80;66.70;;;18.44;51.28;101506.69;5094550;28;20199;-64
2022/06/21 04:11:16;;;;;;;8.33;3.07;;;15.80;66.80;;;18.35;51.32;101510.56;5091848;28;20216;-64
2022/06/21 04:13:56;;;;;;;7.67;3.03;;;15.60;66.80;;;18.26;51.48;101509.97;5094091;27;20678;-64
2022/06/21 04:16:35;;;;;;;13.43;3.37;;;15.60;67.20;;;18.19;51.70;101513.63;5094585;28;20196;-63
2022/06/21 04:19:11;;;;;;;8.73;2.60;;;15.50;67.60;;;18.14;51.92;101510.75;5094044;28;20212;-62
2022/06/21 04:21:48;;;;;;;7.83;3.07;;;15.40;67.70;;;18.07;51.98;101509.94;5093520;28;20204;-64
2022/06/21 04:24:26;;;;;;;6.50;2.73;;;15.30;68.00;;;18.04;52.22;101515.72;5093917;28;20574;-64
2022/06/21 04:27:03;;;;;;;11.03;3.17;;;15.30;68.20;;;17.99;52.16;101524.31;5093874;28;20192;-64
2022/06/21 04:29:38;;;;;;;6.40;2.60;;;15.20;68.40;;;17.96;52.29;101523.88;5094356;28;20188;-63
2022/06/21 04:32:20;;;;;;;7.27;2.70;;;15.20;68.80;;;17.94;52.09;101518.78;5093178;28;20218;-63
2022/06/21 04:34:56;;;;;;;11.23;3.60;;;15.20;69.00;;;17.94;52.89;101512.63;5094080;28;20543;-64
2022/06/21 04:37:33;;;;;;;10.23;3.40;;;15.10;70.00;;;17.96;52.67;101507.91;5093983;28;20192;-64
2022/06/21 04:40:08;;;;;;;6.37;2.50;;;15.20;69.40;;;17.98;52.75;101513.84;5093584;28;20212;-65
2022/06/21 04:42:46;;;;;;;8.40;3.00;;;15.10;69.30;;;17.98;52.83;101506.69;5093238;28;20218;-63
2022/06/21 04:45:25;;;;;;;6.93;2.60;;;15.20;69.60;;;18.02;52.96;101502.56;5093779;28;20193;-63
2022/06/21 04:48:10;;;;;;;6.23;3.10;;;15.20;69.80;;;18.10;52.92;101499.72;5093395;28;20212;-63
2022/06/21 04:50:44;;;;;;;6.80;3.10;;;15.30;70.10;;;18.18;52.94;101496.03;5092890;28;20193;-64
2022/06/21 04:53:22;;;;;;;7.50;2.70;;;15.30;69.70;;;18.26;52.85;101487.81;5091229;28;20288;-64
2022/06/21 04:56:04;;;;;;;8.23;3.70;;;15.40;69.60;;;18.36;52.94;101493.53;5093443;28;20196;-64
2022/06/21 04:58:33;;;;;;;7.73;3.57;;;15.50;69.60;;;18.48;52.64;101489.25;5093833;28;20201;-64
2022/06/21 05:01:29;;;;;;;12.23;4.10;;;15.60;69.10;;;18.57;52.35;101495.19;5093287;28;20220;-64
2022/06/21 05:03:52;;;;;;;8.53;3.53;;;15.70;68.60;;;18.63;52.14;101494.38;5093440;28;20215;-64
2022/06/21 05:06:21;;;;;;;13.93;4.60;;;15.80;68.40;;;18.69;52.11;101502.34;5093160;28;20199;-64
2022/06/21 05:08:49;;;;;;;9.60;4.53;;;15.90;68.50;;;18.82;51.89;101504.16;5092976;28;20184;-64
2022/06/21 05:11:17;;;;;;;11.77;3.77;;;16.00;68.20;;;18.92;51.64;101508.00;5092381;28;20708;-63
2022/06/21 05:13:49;;;;;;;11.70;4.67;;;16.10;67.90;;;18.99;51.33;101509.88;5092733;28;20200;-63
2022/06/21 05:16:24;;;;;;;10.13;3.83;;;16.10;67.50;;;19.02;51.13;101506.78;5093195;28;20194;-64
2022/06/21 05:18:59;;;;;;;9.27;3.60;;;16.20;67.30;;;19.03;51.17;101511.06;5093002;28;20218;-62
2022/06/21 05:21:35;;;;;;;10.17;4.30;;;16.20;67.30;;;19.08;51.00;101524.59;5092585;28;20749;-63
2022/06/21 05:24:05;;;;;;;6.93;3.83;;;16.20;67.20;;;19.13;50.96;101524.78;5092980;28;20282;-63
2022/06/21 05:26:38;;;;;;;14.03;4.13;;;16.20;67.10;;;19.14;50.94;101527.25;5093039;28;20639;-64
2022/06/21 05:29:14;;;;;;;7.20;3.03;;;16.30;67.30;;;19.13;50.78;101535.47;5093392;28;20192;-65
2022/06/21 05:31:47;;;;;;;9.17;3.00;;;16.30;67.20;;;19.13;51.08;101536.28;5091467;28;20733;-65
2022/06/21 05:34:23;;;;;;;5.10;2.80;;;16.30;67.00;;;19.12;50.70;101537.31;5092839;28;20192;-64
2022/06/21 05:36:58;;;;;;;7.20;3.40;;;16.30;66.90;;;19.11;50.91;101550.88;5093547;28;20275;-63
2022/06/21 05:39:31;;;;;;;5.77;3.33;;;16.30;66.80;;;19.11;50.78;101556.22;5093752;28;20210;-64
2022/06/21 05:42:04;;;;;;;7.43;3.73;;;16.30;66.80;;;19.12;50.83;101563.19;5093295;28;20215;-64
2022/06/21 05:44:36;;;;;;;14.87;4.20;;;16.30;66.80;;;19.10;50.87;101565.25;5077251;28;20252;-63
2022/06/21 05:47:14;;;;;;;7.70;3.03;;;16.30;66.80;;;19.11;50.81;101550.88;5072441;28;20219;-63
2022/06/21 05:49:43;;;;;;;6.70;3.20;;;16.30;66.90;;;19.17;50.96;101550.84;5072370;28;20192;-62
2022/06/21 05:52:16;;;;;;;9.47;3.27;;;16.30;67.00;;;19.24;50.74;101553.50;5072648;28;20219;-63
2022/06/21 05:54:51;;;;;;;10.23;3.40;;;16.30;67.00;;;19.31;50.70;101563.13;5091492;28;20189;-63
2022/06/21 05:57:24;;;;;;;6.57;2.63;;;16.40;67.10;;;19.42;50.25;101561.69;5092211;28;20198;-64
2022/06/21 06:00:00;;;;;;;7.17;3.10;;;16.40;67.10;;;19.54;50.50;101565.28;5092654;28;20220;-65
2022/06/21 06:02:37;;;;;;;6.30;2.83;;;16.50;67.20;;;19.67;50.33;101553.72;5092242;28;20246;-64
2022/06/21 06:05:15;;;;;;;6.53;2.63;;;16.60;67.00;;;19.79;49.86;101555.53;5092203;28;20196;-64
2022/06/21 06:07:50;;;;;;;5.03;2.50;;;16.70;66.90;;;19.94;50.31;101553.38;5092352;28;20188;-64
2022/06/21 06:10:22;;;;;;;6.37;2.53;;;16.80;66.90;;;20.14;49.55;101553.22;5087131;28;20197;-63
2022/06/21 06:12:58;;;;;;;6.93;2.43;;;17.00;66.60;;;20.28;49.34;101548.63;5083453;28;20208;-64
2022/06/21 06:15:31;;;;;;;8.50;2.67;;;17.10;66.00;;;20.40;49.26;101542.34;5087529;28;20200;-62
2022/06/21 06:18:07;;;;;;;7.30;2.13;;;17.20;65.70;;;20.52;49.12;101545.13;5088523;28;20189;-63
2022/06/21 06:20:44;;;;;;;6.37;2.20;;;17.30;65.50;;;20.66;48.68;101549.31;5089467;28;20297;-63
2022/06/21 06:23:24;;;;;;;8.37;2.50;;;17.50;65.10;;;20.75;48.31;101550.69;5091201;28;20654;-64
2022/06/21 06:25:59;;;;;;;4.83;2.20;;;17.60;64.60;;;20.84;48.06;101560.03;5092143;28;20237;-62
2022/06/21 06:28:35;;;;;;;7.60;2.47;;;17.70;64.40;;;20.93;47.71;101545.31;5093792;28;20267;-63
2022/06/21 06:31:15;;;;;;;8.83;4.30;;;17.80;64.00;;;21.05;47.22;101550.78;5075209;27;20286;-63
2022/06/21 06:33:49;;;;;;;5.57;2.50;;;17.90;63.60;;;21.15;46.99;101551.91;5074154;28;20195;-62
2022/06/21 06:36:24;;;;;;;8.83;3.13;;;18.00;63.10;;;21.25;46.65;101551.38;5096813;28;20218;-64
2022/06/21 06:38:52;;;;;;;7.23;4.67;;;18.00;62.70;;;21.37;46.46;101552.25;5096324;28;20191;-63
2022/06/21 06:41:29;;;;;;;8.63;2.97;;;18.10;62.40;;;21.48;45.99;101546.97;5095320;28;20212;-62
2022/06/21 06:44:02;;;;;;;4.70;2.30;;;18.30;62.20;;;21.56;45.96;101554.66;5096836;28;20530;-63
2022/06/21 06:46:35;;;;;;;7.40;2.60;;;18.30;61.80;;;21.60;45.76;101549.69;5103686;28;20192;-64
2022/06/21 06:49:19;;;;;;;10.97;2.93;;;18.40;61.20;;;21.65;45.53;101551.69;5112008;28;20282;-64
2022/06/21 06:52:00;;;;;;;6.93;3.07;;;18.40;60.90;;;21.75;45.07;101562.69;5089689;28;21901;-65
2022/06/21 06:54:45;;;;;;;6.13;2.87;;;18.50;60.60;;;21.86;44.87;101569.97;5093386;28;20196;-65
2022/06/21 06:57:24;;;;;;;4.47;2.10;;;18.60;60.00;;;21.92;44.31;101569.88;5074828;28;20185;-63
2022/06/21 06:59:51;;;;;;;7.60;2.77;;;18.70;59.80;;;21.97;44.38;101572.69;5082659;28;20287;-64
2022/06/21 07:02:31;;;;;;;10.30;2.90;;;18.70;59.70;;;22.08;43.80;101565.72;5101016;28;20211;-65
2022/06/21 07:05:11;;;;;;;7.93;3.53;;;18.80;59.20;;;21.95;43.97;101568.59;5114935;28;20188;-64
2022/06/21 07:07:52;;;;;;;10.53;4.30;;;18.90;58.80;;;22.01;44.15;101575.75;5096365;28;20209;-65
2022/06/21 07:10:24;;;;;;;8.23;3.57;;;19.00;58.90;;;22.17;44.25;101569.72;5094376;28;20543;-65
2022/06/21 07:12:54;;;;;;;14.73;10.90;;;19.00;58.70;;;22.31;43.68;101568.44;5093823;28;20216;-64
2022/06/21 07:15:36;;;;;;;15.80;9.70;;;19.10;58.60;;;22.41;43.44;101568.69;5093559;28;20238;-65
2022/06/21 07:18:14;;;;;;;7.90;3.63;;;19.20;58.20;;;22.49;43.30;101578.28;5098240;28;20209;-64
2022/06/21 07:20:45;;;;;;;9.73;5.40;;;19.20;58.10;;;22.55;43.08;101583.53;5094738;28;20219;-65
2022/06/21 07:23:17;;;;;;;5.67;3.90;;;19.30;57.90;;;22.60;43.03;101578.28;5096552;28;20188;-64
2022/06/21 07:25:51;;;;;;;9.50;5.13;;;19.40;57.90;;;22.68;43.09;101569.06;5074267;28;20197;-63
2022/06/21 07:28:28;;;;;;;5.63;3.13;;;19.40;57.70;;;22.75;42.57;101584.00;5102979;27;20216;-65
2022/06/21 07:31:08;;;;;;;7.57;3.13;;;19.50;58.10;;;22.79;41.97;101584.38;5092409;28;20250;-63
2022/06/21 07:33:44;;;;;;;7.77;3.97;;;19.60;56.70;;;22.74;41.88;101574.34;5096044;28;20224;-65
2022/06/21 07:36:30;;;;;;;9.57;3.30;;;19.60;56.40;;;22.78;42.15;101580.88;5091716;28;20214;-62
2022/06/21 07:39:05;;;;;;;5.37;3.37;;;19.70;56.50;;;22.91;41.85;101582.50;5091660;28;20216;-64
2022/06/21 07:41:47;;;;;;;8.03;3.43;;;19.70;56.60;;;22.99;41.75;101584.81;5107761;28;20219;-63
2022/06/21 07:44:22;;;;;;;8.47;3.33;;;19.80;56.10;;;23.00;41.62;101588.31;5097423;28;20203;-63
2022/06/21 07:47:03;;;;;;;4.97;2.93;;;19.90;56.20;;;22.99;41.57;101586.72;5087956;28;20185;-64
2022/06/21 07:49:38;;;;;;;5.67;2.60;;;19.90;55.90;;;23.02;41.66;101580.84;5084903;28;20253;-63
2022/06/21 07:52:14;;;;;;;6.77;3.47;;;19.90;55.80;;;23.04;41.44;101576.03;5084746;28;20246;-63
2022/06/21 07:54:51;;;;;;;5.33;3.10;;;20.00;55.80;;;23.05;41.17;101583.88;5085369;28;20278;-64
2022/06/21 07:57:24;;;;;;;4.13;2.70;;;19.90;55.10;;;23.08;41.10;101579.91;5085755;28;20199;-63
2022/06/21 07:59:59;;;;;;;14.40;4.57;;;20.00;55.30;;;23.21;40.91;101583.16;5086617;28;20685;-62
2022/06/21 08:08:26;;;;;;;7.10;2.47;;;20.30;54.50;;;23.69;40.05;101592.75;5083812;28;20727;-65
2022/06/21 08:11:02;;;;;;;5.63;2.10;;;20.40;54.00;;;23.66;39.55;101580.59;5079410;28;20200;-67
2022/06/21 08:13:31;;;;;;;3.27;2.13;;;20.40;53.50;;;23.61;38.77;101580.50;5065154;28;20686;-64
2022/06/21 08:16:07;;;;;;;8.67;2.63;;;20.50;52.30;;;23.45;38.92;101579.38;5066070;28;20343;-62
2022/06/21 08:18:42;;;;;;;8.07;2.87;;;20.50;52.40;;;23.58;39.40;101571.03;5084540;28;20634;-64
2022/06/21 08:21:16;;;;;;;5.87;2.90;;;20.50;53.10;;;24.49;38.62;101579.91;5082367;28;20215;-64
2022/06/21 08:23:55;;;;;;;4.53;2.00;;;20.70;53.40;;;25.82;37.00;101591.13;5084879;28;20189;-63
2022/06/21 08:26:33;;;;;;;4.77;2.33;;;21.10;53.70;;;26.43;35.63;101589.84;5066831;28;20257;-64
2022/06/21 08:29:06;;;;;;;5.70;2.10;;;21.60;51.80;;;26.68;35.13;101592.72;5084319;28;20199;-65
2022/06/21 08:31:41;;;;;;;74.63;54.80;;;22.00;51.00;;;26.59;35.17;101591.56;5093955;27;20220;-64
2022/06/21 08:34:20;;;;;;;17.97;11.50;;;22.40;50.70;;;26.43;35.30;101587.16;5082456;28;20774;-64
2022/06/21 08:36:55;;;;;;;6.60;3.37;;;22.50;49.60;;;26.35;35.39;101590.31;5082130;28;20211;-64
2022/06/21 08:39:32;;;;;;;5.63;2.50;;;22.60;49.20;;;27.28;34.21;101586.03;5084462;28;21663;-63
2022/06/21 08:42:54;;;;;;;3.50;1.80;;;22.80;49.30;;;29.36;32.02;101581.19;5084236;28;20547;-64
2022/06/21 08:46:28;;;;;;;3.97;2.20;;;23.40;49.80;;;31.56;28.70;101586.88;5094581;28;20197;-68
2022/06/21 08:49:48;;;;;;;3.77;2.20;;;24.40;47.00;;;33.08;25.78;101575.03;4999801;28;20203;-68
2022/06/21 08:52:45;;;;;;;6.70;4.60;;;25.60;43.30;;;34.25;24.92;101564.97;4982170;28;20311;-63
2022/06/21 08:55:25;;;;;;;5.87;2.20;;;26.60;41.10;;;35.38;24.26;101566.72;5081077;28;20211;-64
2022/06/21 08:58:13;;;;;;;4.77;1.97;;;27.50;40.50;;;36.60;22.54;101567.13;5080951;28;20690;-66
2022/06/21 09:00:51;;;;;;;6.93;2.37;;;28.30;37.90;;;37.53;20.94;101574.38;5080231;28;20240;-63
2022/06/21 09:03:56;;;;;;;3.87;2.30;;;29.00;36.50;;;38.26;19.74;101559.78;5082713;28;20207;-64
2022/06/21 09:06:39;;;;;;;2.33;1.80;;;29.70;34.40;;;38.48;18.60;101570.41;5082074;28;20747;-65
2022/06/21 09:09:44;;;;;;;3.80;2.53;;;30.40;30.80;;;38.48;18.60;101564.91;5083016;28;20188;-63
2022/06/21 09:12:27;;;;;;;9.40;7.93;;;31.00;30.10;;;38.89;18.93;101568.63;5081036;28;20228;-65
2022/06/21 09:15:21;;;;;;;5.97;3.00;;;31.40;30.60;;;39.65;18.28;101563.13;5082133;28;20200;-64
2022/06/21 09:18:04;;;;;;;3.45;2.38;;;31.80;29.80;;;39.95;18.40;101566.31;5081928;28;20201;-63
2022/06/21 09:20:42;;;;;;;6.50;2.28;;;32.10;29.10;;;40.20;16.75;101568.59;5081488;28;20192;-62
2022/06/21 09:23:49;;;;;;;3.53;2.33;;;32.20;27.50;;;40.41;17.08;101565.59;5084426;28;20232;-63
2022/06/21 09:26:32;;;;;;;4.22;2.10;;;32.60;28.00;;;40.59;16.27;101566.06;5084497;28;20189;-62
2022/06/21 09:29:20;;;;;;;6.68;2.47;;;32.70;26.50;;;40.82;15.62;101565.06;5083335;28;20189;-62
2022/06/21 09:32:19;;;;;;;4.70;2.17;;;33.00;26.10;;;40.71;16.65;101557.66;5088184;28;20280;-63
2022/06/21 09:35:09;;;;;;;3.63;2.35;;;33.20;26.40;;;40.72;16.30;101554.56;5085213;28;20823;-62
2022/06/21 09:37:56;;;;;;;3.13;1.83;;;33.30;26.40;;;41.11;16.55;101549.94;5085679;28;20709;-63
2022/06/21 09:40:30;;;;;;;2.60;1.98;;;33.50;26.40;;;41.02;16.32;101554.88;5084061;28;20184;-64
2022/06/21 09:43:28;;;;;;;7.20;5.72;;;33.60;26.10;;;40.50;16.64;101549.69;5083487;28;20289;-63
2022/06/21 09:46:06;;;;;;;7.13;3.90;;;33.60;25.60;;;40.16;16.77;101553.09;5084614;28;20189;-64
2022/06/21 09:48:46;;;;;;;3.88;2.38;;;33.40;25.70;;;40.54;15.89;101553.31;5083925;28;20330;-62
2022/06/21 09:51:40;;;;;;;4.25;3.20;;;33.30;25.90;;;41.34;15.43;101544.56;5083840;28;20239;-64
2022/06/21 09:54:34;;;;;;;3.78;2.35;;;33.30;25.90;;;41.70;15.16;101550.47;5083396;28;20665;-64
2022/06/21 09:57:25;;;;;;;7.65;4.50;;;33.50;25.00;;;41.84;15.36;101547.97;5084422;28;20220;-63
2022/06/21 10:00:04;;;;;;;6.97;2.70;;;33.60;25.10;;;42.01;14.57;101543.94;5084759;28;20200;-63
2022/06/21 10:02:45;;;;;;;3.05;2.08;;;33.70;24.90;;;42.15;15.12;101537.91;5083652;28;20219;-62
2022/06/21 10:05:25;;;;;;;2.85;1.90;;;33.90;25.70;;;42.12;14.29;101538.63;5084978;28;20569;-64
2022/06/21 10:08:14;;;;;;;5.22;1.98;;;34.10;23.80;;;41.92;14.42;101528.72;5083227;28;20725;-63
2022/06/21 10:11:01;;;;;;;4.82;2.55;;;34.20;23.90;;;42.15;14.18;101532.38;5086583;28;20200;-64
2022/06/21 10:14:25;;;;;;;5.45;2.75;;;34.30;23.70;;;42.60;14.33;101529.59;5087943;28;20707;-62
2022/06/21 10:17:25;;;;;;;3.10;2.20;;;34.40;23.60;;;42.87;13.52;101531.16;5027478;28;20214;-63
2022/06/21 10:20:30;;;;;;;6.60;5.93;;;34.60;23.00;;;43.11;13.37;101518.84;5086794;28;20204;-64
2022/06/21 10:23:27;;;;;;;4.88;2.67;;;34.80;23.10;;;43.11;13.32;101524.38;5088726;28;20664;-63
2022/06/21 10:26:19;;;;;;;3.03;2.08;;;35.00;22.70;;;42.57;13.64;101510.13;5087819;28;20206;-64
2022/06/21 10:29:12;;;;;;;2.90;2.25;;;34.80;23.00;;;42.27;14.10;101515.56;5087194;28;20189;-64
2022/06/21 10:32:15;;;;;;;3.95;3.22;;;34.70;23.00;;;42.33;13.46;101503.78;5085410;28;20892;-63
2022/06/21 10:35:07;;;;;;;4.53;2.72;;;34.70;23.10;;;42.37;14.03;101503.81;5086496;28;20192;-63
2022/06/21 10:38:03;;;;;;;4.32;2.03;;;34.70;23.10;;;42.42;13.73;101509.88;5087332;28;20193;-62
2022/06/21 10:41:02;;;;;;;3.75;2.38;;;34.70;22.50;;;42.77;13.68;101504.06;5086401;28;20342;-62
2022/06/21 10:44:23;;;;;;;10.82;9.05;;;34.70;23.00;;;42.56;13.48;101511.28;5086193;28;20611;-63
2022/06/21 10:47:01;;;;;;;2.95;2.28;;;34.80;22.20;;;41.50;13.73;101501.84;5084982;28;20670;-63
2022/06/21 10:50:02;;;;;;;4.95;1.95;;;34.60;22.30;;;39.58;15.94;101491.97;5086339;28;20281;-62
2022/06/21 10:53:25;;;;;;;4.78;2.53;;;34.20;22.80;;;37.73;17.18;101489.13;5088151;28;20845;-63
2022/06/21 11:01:16;;;;;;;4.07;2.67;;;32.60;23.80;;;36.14;18.05;101494.94;5086064;28;20195;-64
2022/06/21 11:02:47;;;;;;;4.65;2.20;;;31.90;24.50;;;35.95;18.64;101482.41;5085762;28;20219;-62
2022/06/21 11:05:24;;;;;;;5.70;3.37;;;31.30;25.00;;;35.76;18.59;101472.91;5084515;28;20702;-63
2022/06/21 11:08:06;;;;;;;3.13;1.80;;;30.90;25.40;;;35.28;19.17;101482.13;5084152;28;20201;-63
2022/06/21 11:10:46;;;;;;;4.57;2.00;;;30.70;25.70;;;34.98;19.11;101474.81;5084805;28;20197;-63